Loma, Colorado
Current Conditions -  °F | °C
As of 2:53 AM on Saturday 25 Oct 2014 (Local Time) from KGJT Reporting Station
Clear Clear  
Wind Chill: 44°   Ceiling: Unl
Heat Index: 46°   Visibility: 10mi
Dew Point: 33°   Wind: 5mph
Humidity: 61%   Direction: 90°E
Pressure: 30.25"   Gusts: NA
Location:  39.2°N, 108.82°W
Report Text: KGJT 250853Z AUTO 09004KT 10SM CLR 08/01 A3025 RMK AO2 SLP200 T00780006 50002
Loading
Personal Weather Stations






























Interactive Weather Map
Tropical Storm Tracking
New forecast layout! Learn more

10-Day Weather Forecast

Advertisements
Track Severe Weather on mobile